Time;durP1;ratioP1;P1;durP2;ratioP2;P2;SDS_P1;SDS_P2;PMS_P1;PMS_P2;Temp;Humidity;BMP_temperature;BMP_pressure;BME280_temperature;BME280_humidity;BME280_pressure;Samples;Min_cycle;Max_cycle;Signal;HPM_P1;HPM_P2
2021/07/08 00:01:10;;;;;;;;;;;21.60;60.60;;;;;;484312;245;1119;-70
2021/07/08 00:03:11;;;;;;;;;;;21.60;60.60;;;;;;484354;245;1256;-70
2021/07/08 00:05:13;;;;;;;;;;;21.60;60.70;;;;;;484273;245;1110;-70
2021/07/08 00:07:14;;;;;;;;;;;21.60;60.70;;;;;;484150;245;1308;-70
2021/07/08 00:09:15;;;;;;;;;;;21.60;60.70;;;;;;484234;245;2199;-70
2021/07/08 00:11:17;;;;;;;;;;;21.60;60.90;;;;;;484220;245;1228;-70
2021/07/08 00:13:18;;;;;;;;;;;21.60;60.80;;;;;;484300;245;1228;-70
2021/07/08 00:15:19;;;;;;;;;;;21.60;60.80;;;;;;484264;245;1107;-70
2021/07/08 00:17:21;;;;;;;;;;;21.70;60.70;;;;;;484194;245;1254;-70
2021/07/08 00:19:22;;;;;;;;;;;21.60;60.70;;;;;;484234;245;1115;-71
2021/07/08 00:21:23;;;;;;;;;;;21.60;60.60;;;;;;484263;245;1061;-72
2021/07/08 00:23:25;;;;;;;;;;;21.60;60.70;;;;;;484289;245;1091;-70
2021/07/08 00:25:26;;;;;;;;;;;21.60;60.80;;;;;;484284;245;1080;-70
2021/07/08 00:27:28;;;;;;;;;;;21.60;60.90;;;;;;484261;245;1297;-70
2021/07/08 00:29:29;;;;;;;;;;;21.60;60.90;;;;;;484317;245;2200;-70
2021/07/08 00:31:30;;;;;;;;;;;21.60;60.80;;;;;;484289;245;1120;-70
2021/07/08 00:33:31;;;;;;;;;;;21.60;60.80;;;;;;484333;245;1078;-70
2021/07/08 00:35:33;;;;;;;;;;;21.50;60.90;;;;;;484271;245;1076;-70
2021/07/08 00:37:34;;;;;;;;;;;21.50;61.00;;;;;;484228;245;1106;-70
2021/07/08 00:39:35;;;;;;;;;;;21.50;60.90;;;;;;484277;245;1089;-70
2021/07/08 00:41:37;;;;;;;;;;;21.50;61.00;;;;;;484160;245;1273;-71
2021/07/08 00:43:38;;;;;;;;;;;21.50;61.00;;;;;;484237;245;1121;-70
2021/07/08 00:45:39;;;;;;;;;;;21.60;60.80;;;;;;484258;245;1042;-70
2021/07/08 00:47:41;;;;;;;;;;;21.50;60.90;;;;;;484251;245;1131;-70
2021/07/08 00:49:42;;;;;;;;;;;21.50;60.90;;;;;;484321;245;2164;-70
2021/07/08 00:51:44;;;;;;;;;;;21.40;61.10;;;;;;484334;245;1188;-70
2021/07/08 00:53:45;;;;;;;;;;;21.40;61.10;;;;;;484310;245;1157;-70
2021/07/08 00:55:46;;;;;;;;;;;21.40;61.10;;;;;;484200;245;1066;-70
2021/07/08 00:57:52;;;;;;;;;;;21.40;61.00;;;;;;484303;245;1178;-70
2021/07/08 00:59:54;;;;;;;;;;;21.50;61.00;;;;;;484269;245;1001;-70
2021/07/08 01:01:55;;;;;;;;;;;21.40;61.00;;;;;;484330;245;1203;-70
2021/07/08 01:03:56;;;;;;;;;;;21.40;61.00;;;;;;484236;245;1380;-70
2021/07/08 01:05:58;;;;;;;;;;;21.40;60.90;;;;;;484266;245;1110;-70
2021/07/08 01:07:59;;;;;;;;;;;21.40;61.00;;;;;;484253;245;1143;-70
2021/07/08 01:10:00;;;;;;;;;;;21.40;61.00;;;;;;484296;245;2199;-70
2021/07/08 01:12:02;;;;;;;;;;;21.40;60.90;;;;;;484148;245;1206;-70
2021/07/08 01:14:03;;;;;;;;;;;21.40;61.00;;;;;;484159;245;1155;-70
2021/07/08 01:16:04;;;;;;;;;;;21.40;61.00;;;;;;484320;242;1180;-70
2021/07/08 01:18:06;;;;;;;;;;;21.40;61.00;;;;;;484263;245;1170;-70
2021/07/08 01:20:07;;;;;;;;;;;21.40;61.00;;;;;;484253;245;1028;-70
2021/07/08 01:22:08;;;;;;;;;;;21.40;61.00;;;;;;484305;245;1098;-70
2021/07/08 01:24:10;;;;;;;;;;;21.40;61.00;;;;;;484278;245;1134;-70
2021/07/08 01:26:11;;;;;;;;;;;21.40;61.00;;;;;;484354;245;1231;-70
2021/07/08 01:28:12;;;;;;;;;;;21.40;61.00;;;;;;484291;245;1211;-70
2021/07/08 01:30:14;;;;;;;;;;;21.40;61.00;;;;;;484284;245;2200;-70
2021/07/08 01:32:15;;;;;;;;;;;21.40;61.00;;;;;;484161;245;1140;-70
2021/07/08 01:34:16;;;;;;;;;;;21.40;61.00;;;;;;484301;245;1104;-70
2021/07/08 01:36:18;;;;;;;;;;;21.40;61.10;;;;;;484222;245;1259;-70
2021/07/08 01:38:19;;;;;;;;;;;21.40;61.00;;;;;;484290;245;1054;-70
2021/07/08 01:40:21;;;;;;;;;;;21.40;61.10;;;;;;484291;245;1057;-70
2021/07/08 01:42:24;;;;;;;;;;;21.40;61.00;;;;;;484279;245;1163;-70
2021/07/08 01:44:23;;;;;;;;;;;21.40;61.20;;;;;;484406;241;1423;-71
2021/07/08 01:46:24;;;;;;;;;;;21.40;61.00;;;;;;484229;245;1197;-70
2021/07/08 01:48:26;;;;;;;;;;;21.50;61.10;;;;;;484307;245;1083;-70
2021/07/08 01:50:27;;;;;;;;;;;21.40;61.10;;;;;;484212;245;2369;-70
2021/07/08 01:52:28;;;;;;;;;;;21.40;61.10;;;;;;484258;245;1060;-70
2021/07/08 01:54:30;;;;;;;;;;;21.40;61.10;;;;;;484229;245;1021;-70
2021/07/08 01:56:32;;;;;;;;;;;21.40;61.10;;;;;;484234;245;1319;-70
2021/07/08 01:58:32;;;;;;;;;;;21.40;61.10;;;;;;484298;241;1410;-70
2021/07/08 02:00:34;;;;;;;;;;;21.50;61.20;;;;;;484249;245;1021;-70
2021/07/08 02:02:35;;;;;;;;;;;21.40;61.10;;;;;;484332;245;1221;-70
2021/07/08 02:04:37;;;;;;;;;;;21.40;61.30;;;;;;484274;245;1056;-70
2021/07/08 02:06:38;;;;;;;;;;;21.40;61.40;;;;;;484234;245;1210;-70
2021/07/08 02:08:39;;;;;;;;;;;21.30;61.50;;;;;;484317;245;1065;-70
2021/07/08 02:10:41;;;;;;;;;;;21.30;61.50;;;;;;484429;245;2101;-70
2021/07/08 02:12:42;;;;;;;;;;;21.30;61.60;;;;;;484259;245;1134;-70
2021/07/08 02:14:43;;;;;;;;;;;21.20;62.00;;;;;;484378;245;1214;-70
2021/07/08 02:16:45;;;;;;;;;;;21.10;62.40;;;;;;484205;242;1273;-71
2021/07/08 02:18:46;;;;;;;;;;;21.00;62.70;;;;;;484377;245;1175;-70
2021/07/08 02:20:47;;;;;;;;;;;21.00;62.80;;;;;;484266;245;1280;-70
2021/07/08 02:22:49;;;;;;;;;;;20.90;62.90;;;;;;484418;245;1083;-69
2021/07/08 02:24:50;;;;;;;;;;;20.90;63.00;;;;;;484265;245;1062;-71
2021/07/08 02:26:51;;;;;;;;;;;20.90;63.00;;;;;;484210;245;1169;-70
2021/07/08 02:28:53;;;;;;;;;;;20.90;63.10;;;;;;484277;245;1559;-70
2021/07/08 02:30:54;;;;;;;;;;;20.90;63.10;;;;;;484265;245;2195;-70
2021/07/08 02:32:55;;;;;;;;;;;20.90;63.10;;;;;;484176;245;1229;-70
2021/07/08 02:34:57;;;;;;;;;;;20.90;63.20;;;;;;484420;245;1038;-70
2021/07/08 02:36:58;;;;;;;;;;;20.90;63.20;;;;;;484211;245;1190;-70
2021/07/08 02:39:00;;;;;;;;;;;20.90;63.20;;;;;;484274;245;1065;-70
2021/07/08 02:41:01;;;;;;;;;;;20.90;63.20;;;;;;484256;245;1313;-70
2021/07/08 02:43:03;;;;;;;;;;;20.90;63.30;;;;;;484257;245;1180;-71
2021/07/08 02:45:04;;;;;;;;;;;20.90;63.20;;;;;;484294;241;1422;-70
2021/07/08 02:47:05;;;;;;;;;;;20.90;63.20;;;;;;484258;245;1153;-70
2021/07/08 02:49:06;;;;;;;;;;;20.90;63.10;;;;;;484282;245;1036;-70
2021/07/08 02:51:08;;;;;;;;;;;20.90;63.20;;;;;;484276;245;2187;-70
2021/07/08 02:53:09;;;;;;;;;;;20.90;63.20;;;;;;484192;245;1263;-70
2021/07/08 02:55:10;;;;;;;;;;;20.90;63.10;;;;;;484245;245;1073;-70
2021/07/08 02:57:12;;;;;;;;;;;20.90;63.20;;;;;;484273;243;1232;-70
2021/07/08 02:59:13;;;;;;;;;;;20.90;63.20;;;;;;484360;245;1264;-70
2021/07/08 03:01:14;;;;;;;;;;;20.90;63.30;;;;;;484235;245;1237;-70
2021/07/08 03:03:16;;;;;;;;;;;20.90;63.30;;;;;;484317;245;1058;-70
2021/07/08 03:05:17;;;;;;;;;;;20.90;63.30;;;;;;484279;245;1028;-71
2021/07/08 03:07:18;;;;;;;;;;;20.80;63.20;;;;;;484266;245;1118;-70
2021/07/08 03:09:20;;;;;;;;;;;20.90;63.30;;;;;;484347;245;1122;-70
2021/07/08 03:11:23;;;;;;;;;;;20.90;63.40;;;;;;484252;245;1121;-71
2021/07/08 03:13:22;;;;;;;;;;;20.90;63.40;;;;;;484377;241;1382;-70
2021/07/08 03:15:24;;;;;;;;;;;20.90;63.40;;;;;;484228;245;1124;-70
2021/07/08 03:17:25;;;;;;;;;;;20.90;63.40;;;;;;484175;245;1176;-70
2021/07/08 03:19:26;;;;;;;;;;;20.90;63.40;;;;;;484210;245;1057;-70
2021/07/08 03:21:28;;;;;;;;;;;20.90;63.40;;;;;;484214;242;1147;-70
2021/07/08 03:23:29;;;;;;;;;;;20.90;63.30;;;;;;484390;245;1066;-70
2021/07/08 03:25:30;;;;;;;;;;;20.90;63.30;;;;;;484276;245;1061;-70
2021/07/08 03:27:32;;;;;;;;;;;20.90;63.50;;;;;;484212;245;1294;-70
2021/07/08 03:29:33;;;;;;;;;;;20.90;63.40;;;;;;484259;245;2200;-70
2021/07/08 03:31:34;;;;;;;;;;;20.90;63.40;;;;;;484152;245;1205;-70
2021/07/08 03:33:37;;;;;;;;;;;20.90;63.50;;;;;;484220;245;1266;-70
2021/07/08 03:35:38;;;;;;;;;;;20.90;63.50;;;;;;484254;245;1430;-70
2021/07/08 03:37:40;;;;;;;;;;;20.90;63.40;;;;;;484256;245;1124;-70
2021/07/08 03:39:41;;;;;;;;;;;20.90;63.30;;;;;;484370;245;1041;-70
2021/07/08 03:41:42;;;;;;;;;;;20.90;63.40;;;;;;484219;245;1357;-70
2021/07/08 03:43:44;;;;;;;;;;;20.90;63.40;;;;;;484271;245;1137;-70
2021/07/08 03:45:45;;;;;;;;;;;21.00;63.40;;;;;;484337;245;1074;-70
2021/07/08 03:47:46;;;;;;;;;;;20.90;63.40;;;;;;484305;245;1137;-70
2021/07/08 03:49:48;;;;;;;;;;;20.90;63.40;;;;;;484364;245;2200;-70
2021/07/08 03:51:49;;;;;;;;;;;20.90;63.40;;;;;;484204;245;1322;-70
2021/07/08 03:53:50;;;;;;;;;;;20.90;63.40;;;;;;484237;245;1148;-70
2021/07/08 03:58:11;;;;;;;;;;;20.90;63.60;;;;;;484371;245;1101;-70
2021/07/08 04:00:12;;;;;;;;;;;20.90;63.50;;;;;;484242;245;1177;-70
2021/07/08 04:02:14;;;;;;;;;;;20.90;63.60;;;;;;484260;245;1256;-70
2021/07/08 04:04:15;;;;;;;;;;;20.90;63.60;;;;;;484194;245;1314;-70
2021/07/08 04:06:16;;;;;;;;;;;20.90;63.50;;;;;;484120;245;1065;-70
2021/07/08 04:08:18;;;;;;;;;;;20.90;63.60;;;;;;484191;245;1146;-70
2021/07/08 04:10:19;;;;;;;;;;;20.90;63.60;;;;;;484098;245;2157;-69
2021/07/08 04:12:20;;;;;;;;;;;20.90;63.70;;;;;;484253;245;1364;-70
2021/07/08 04:14:22;;;;;;;;;;;20.90;63.70;;;;;;484185;245;1168;-70
2021/07/08 04:16:23;;;;;;;;;;;20.90;63.80;;;;;;484132;245;1089;-70
2021/07/08 04:18:24;;;;;;;;;;;20.90;63.70;;;;;;484096;245;1117;-70
2021/07/08 04:20:26;;;;;;;;;;;20.90;63.70;;;;;;484211;245;1074;-70
2021/07/08 04:22:27;;;;;;;;;;;20.90;63.70;;;;;;484103;245;1244;-70
2021/07/08 04:24:28;;;;;;;;;;;20.90;63.70;;;;;;484175;245;1050;-70
2021/07/08 04:26:30;;;;;;;;;;;20.80;63.70;;;;;;484114;245;1067;-70
2021/07/08 04:28:31;;;;;;;;;;;20.90;63.70;;;;;;484156;245;1025;-70
2021/07/08 04:30:32;;;;;;;;;;;20.80;63.70;;;;;;484072;245;2196;-70
2021/07/08 04:32:34;;;;;;;;;;;20.90;63.80;;;;;;484098;245;1102;-70
2021/07/08 04:34:35;;;;;;;;;;;20.80;63.70;;;;;;484106;245;1071;-70
2021/07/08 04:36:36;;;;;;;;;;;20.80;63.60;;;;;;483998;245;1173;-70
2021/07/08 04:38:38;;;;;;;;;;;20.80;63.70;;;;;;484087;245;1215;-69
2021/07/08 04:40:39;;;;;;;;;;;20.90;63.70;;;;;;484127;245;1096;-70
2021/07/08 04:42:40;;;;;;;;;;;20.80;63.70;;;;;;483986;245;1069;-70
2021/07/08 04:44:42;;;;;;;;;;;20.80;63.80;;;;;;483997;245;1107;-70
2021/07/08 04:46:43;;;;;;;;;;;20.80;63.80;;;;;;483967;245;1069;-70
2021/07/08 04:48:44;;;;;;;;;;;20.80;63.70;;;;;;484046;245;1064;-70
2021/07/08 04:50:46;;;;;;;;;;;20.80;63.70;;;;;;483806;245;2195;-70
2021/07/08 04:52:47;;;;;;;;;;;20.80;63.80;;;;;;483884;245;1233;-70
2021/07/08 04:54:48;;;;;;;;;;;20.80;63.80;;;;;;484014;245;1130;-70
2021/07/08 04:56:50;;;;;;;;;;;20.80;63.70;;;;;;483922;245;1190;-70
2021/07/08 04:58:51;;;;;;;;;;;20.80;63.60;;;;;;483919;245;1076;-70
2021/07/08 05:00:53;;;;;;;;;;;20.80;63.60;;;;;;483931;245;1276;-70
2021/07/08 05:02:54;;;;;;;;;;;20.80;63.70;;;;;;484020;245;1320;-70
2021/07/08 05:04:55;;;;;;;;;;;20.80;63.70;;;;;;484013;245;1124;-70
2021/07/08 05:06:57;;;;;;;;;;;20.80;63.70;;;;;;483913;245;1059;-70
2021/07/08 05:08:58;;;;;;;;;;;20.80;63.70;;;;;;483865;245;1146;-70
2021/07/08 05:10:59;;;;;;;;;;;20.80;63.70;;;;;;483791;243;2129;-70
2021/07/08 05:13:01;;;;;;;;;;;20.80;63.70;;;;;;484005;245;1191;-70
2021/07/08 05:15:02;;;;;;;;;;;20.80;63.80;;;;;;483912;245;1212;-70
2021/07/08 05:17:03;;;;;;;;;;;20.80;63.80;;;;;;483954;245;1207;-70
2021/07/08 05:19:05;;;;;;;;;;;20.80;63.70;;;;;;483898;245;1127;-70
2021/07/08 05:21:06;;;;;;;;;;;20.80;63.70;;;;;;483898;245;1157;-70
2021/07/08 05:23:14;;;;;;;;;;;20.80;63.70;;;;;;483876;245;1158;-70
2021/07/08 05:25:14;;;;;;;;;;;20.80;63.70;;;;;;483942;241;1382;-70
2021/07/08 05:27:16;;;;;;;;;;;20.80;63.80;;;;;;483863;245;1201;-70
2021/07/08 05:29:17;;;;;;;;;;;20.80;63.70;;;;;;483918;245;1213;-70
2021/07/08 05:31:19;;;;;;;;;;;20.80;63.70;;;;;;483859;245;2180;-70
2021/07/08 05:33:20;;;;;;;;;;;20.80;63.70;;;;;;483798;245;1147;-70
2021/07/08 05:35:21;;;;;;;;;;;20.80;63.70;;;;;;483861;245;1203;-69
2021/07/08 05:37:23;;;;;;;;;;;20.90;63.70;;;;;;483804;245;1046;-70
2021/07/08 05:39:24;;;;;;;;;;;20.90;63.70;;;;;;483849;245;1075;-70
2021/07/08 05:41:25;;;;;;;;;;;20.90;63.70;;;;;;483798;245;1185;-70
2021/07/08 05:43:27;;;;;;;;;;;20.80;63.60;;;;;;483761;245;1090;-70
2021/07/08 05:45:28;;;;;;;;;;;20.90;63.70;;;;;;483790;245;1266;-70
2021/07/08 05:47:29;;;;;;;;;;;20.90;63.70;;;;;;483665;245;1122;-70
2021/07/08 05:49:31;;;;;;;;;;;20.90;63.70;;;;;;483694;245;1100;-70
2021/07/08 05:51:32;;;;;;;;;;;20.90;63.60;;;;;;483710;245;2137;-70
2021/07/08 05:53:33;;;;;;;;;;;20.80;63.70;;;;;;483793;245;1242;-70
2021/07/08 05:55:35;;;;;;;;;;;20.90;63.70;;;;;;483692;245;1241;-70
2021/07/08 05:57:36;;;;;;;;;;;20.90;63.70;;;;;;483689;245;1170;-70
2021/07/08 05:59:38;;;;;;;;;;;20.80;63.60;;;;;;483735;245;1128;-70
2021/07/08 06:01:39;;;;;;;;;;;20.80;63.70;;;;;;483612;245;1153;-70
2021/07/08 06:03:40;;;;;;;;;;;20.90;63.80;;;;;;483610;245;1184;-70
2021/07/08 06:05:42;;;;;;;;;;;20.90;63.80;;;;;;483674;245;1092;-70
2021/07/08 06:07:43;;;;;;;;;;;20.90;63.70;;;;;;483791;245;1101;-70
2021/07/08 06:09:44;;;;;;;;;;;20.90;63.80;;;;;;483787;245;1108;-70
2021/07/08 06:11:46;;;;;;;;;;;20.90;63.70;;;;;;483607;242;2144;-70
2021/07/08 06:13:47;;;;;;;;;;;20.90;63.70;;;;;;483578;245;1485;-70
2021/07/08 06:15:48;;;;;;;;;;;20.90;63.80;;;;;;483643;245;1257;-70
2021/07/08 06:17:49;;;;;;;;;;;20.80;63.80;;;;;;483777;245;1175;-70
2021/07/08 06:19:51;;;;;;;;;;;20.90;63.80;;;;;;483595;245;1101;-70
2021/07/08 06:21:52;;;;;;;;;;;20.80;63.80;;;;;;483335;245;1210;-70
2021/07/08 06:23:53;;;;;;;;;;;20.80;63.80;;;;;;483398;245;1133;-70
2021/07/08 06:25:55;;;;;;;;;;;20.90;63.90;;;;;;483407;245;1209;-70
2021/07/08 06:27:56;;;;;;;;;;;20.90;63.80;;;;;;483410;245;1092;-70
2021/07/08 06:29:58;;;;;;;;;;;20.90;63.80;;;;;;483327;245;1107;-70
2021/07/08 06:31:59;;;;;;;;;;;20.90;63.70;;;;;;483278;245;2189;-70
2021/07/08 06:34:00;;;;;;;;;;;20.90;63.80;;;;;;483357;245;1192;-70
2021/07/08 06:36:02;;;;;;;;;;;20.90;63.80;;;;;;483304;245;1326;-70
2021/07/08 06:38:03;;;;;;;;;;;20.80;63.90;;;;;;483359;245;1103;-70
2021/07/08 06:40:05;;;;;;;;;;;20.80;63.80;;;;;;483221;245;1104;-70
2021/07/08 06:42:06;;;;;;;;;;;20.80;63.80;;;;;;483222;245;1205;-70
2021/07/08 06:44:08;;;;;;;;;;;20.80;63.80;;;;;;483278;245;1149;-70
2021/07/08 06:46:09;;;;;;;;;;;20.80;63.80;;;;;;483060;245;1286;-70
2021/07/08 06:48:13;;;;;;;;;;;20.70;63.90;;;;;;483091;245;1076;-70
2021/07/08 06:50:12;;;;;;;;;;;20.70;63.90;;;;;;483279;241;1496;-70
2021/07/08 06:52:14;;;;;;;;;;;20.70;64.00;;;;;;483156;245;2179;-70
2021/07/08 06:54:14;;;;;;;;;;;20.70;63.90;;;;;;483109;241;1280;-70
2021/07/08 06:56:15;;;;;;;;;;;20.70;63.80;;;;;;483221;242;1438;-70
2021/07/08 06:58:17;;;;;;;;;;;20.70;63.80;;;;;;483273;245;1080;-70
2021/07/08 07:00:18;;;;;;;;;;;20.70;63.80;;;;;;483254;245;1104;-70
2021/07/08 07:02:20;;;;;;;;;;;20.70;63.80;;;;;;483040;245;1226;-70
2021/07/08 07:04:21;;;;;;;;;;;20.70;63.80;;;;;;483127;245;1078;-70
2021/07/08 07:06:22;;;;;;;;;;;20.70;63.80;;;;;;483118;242;1194;-70
2021/07/08 07:08:23;;;;;;;;;;;20.70;63.80;;;;;;483081;245;1136;-70
2021/07/08 07:10:25;;;;;;;;;;;20.70;63.90;;;;;;483166;245;1106;-70
2021/07/08 07:12:26;;;;;;;;;;;20.70;63.80;;;;;;483198;245;2188;-70
2021/07/08 07:14:27;;;;;;;;;;;20.80;63.70;;;;;;483225;245;1108;-70
2021/07/08 07:16:29;;;;;;;;;;;20.80;63.50;;;;;;483170;245;1304;-70
2021/07/08 07:18:30;;;;;;;;;;;20.80;63.50;;;;;;483206;245;1179;-70
2021/07/08 07:20:32;;;;;;;;;;;20.80;63.50;;;;;;483280;245;1132;-70
2021/07/08 07:22:33;;;;;;;;;;;20.80;63.50;;;;;;483366;245;1439;-70
2021/07/08 07:24:34;;;;;;;;;;;20.80;63.50;;;;;;483360;245;1075;-70
2021/07/08 07:26:36;;;;;;;;;;;20.80;63.50;;;;;;482904;245;1679;-70
2021/07/08 07:28:37;;;;;;;;;;;20.90;63.60;;;;;;482801;245;1139;-70
2021/07/08 07:30:39;;;;;;;;;;;21.00;63.60;;;;;;482774;245;1132;-71
2021/07/08 07:32:40;;;;;;;;;;;21.00;63.60;;;;;;482716;245;2183;-70
2021/07/08 07:34:41;;;;;;;;;;;21.10;63.50;;;;;;483060;245;1113;-70
2021/07/08 07:36:43;;;;;;;;;;;21.10;63.50;;;;;;483808;245;1325;-70
2021/07/08 07:38:44;;;;;;;;;;;21.10;63.70;;;;;;484098;245;947;-70
2021/07/08 07:40:45;;;;;;;;;;;21.00;64.30;;;;;;483600;245;1098;-70
2021/07/08 07:42:47;;;;;;;;;;;20.90;64.80;;;;;;483259;245;1041;-70
2021/07/08 07:44:48;;;;;;;;;;;20.90;65.50;;;;;;483136;245;1150;-70
2021/07/08 07:46:49;;;;;;;;;;;20.80;65.80;;;;;;483053;243;1378;-70
2021/07/08 07:48:51;;;;;;;;;;;20.80;66.30;;;;;;482900;245;1144;-70
2021/07/08 07:50:52;;;;;;;;;;;20.70;66.60;;;;;;482923;245;1056;-70
2021/07/08 07:52:55;;;;;;;;;;;20.70;66.80;;;;;;482995;245;2196;-70
2021/07/08 07:54:55;;;;;;;;;;;20.70;66.90;;;;;;483849;241;1934;-70
2021/07/08 07:56:58;;;;;;;;;;;20.60;67.20;;;;;;483913;245;1262;-70
2021/07/08 07:58:58;;;;;;;;;;;20.60;67.30;;;;;;483319;241;1332;-70
2021/07/08 08:01:00;;;;;;;;;;;20.50;67.50;;;;;;483179;245;874;-70
2021/07/08 08:03:01;;;;;;;;;;;20.50;67.70;;;;;;483485;245;1041;-70
2021/07/08 08:05:21;;;;;;;;;;;20.40;67.80;;;;;;483485;245;831;-70
2021/07/08 08:09:39;;;;;;;;;;;20.30;67.90;;;;;;483294;245;1091;-70
2021/07/08 08:11:41;;;;;;;;;;;20.50;67.60;;;;;;483163;245;2188;-70
2021/07/08 08:13:42;;;;;;;;;;;20.60;67.20;;;;;;482955;245;1098;-70
2021/07/08 08:15:44;;;;;;;;;;;20.60;67.10;;;;;;483006;245;1260;-70
2021/07/08 08:17:45;;;;;;;;;;;20.60;66.80;;;;;;483130;245;1307;-70
2021/07/08 08:19:47;;;;;;;;;;;20.70;66.70;;;;;;483155;245;1063;-70
2021/07/08 08:21:48;;;;;;;;;;;20.70;66.40;;;;;;483194;245;1079;-70
2021/07/08 08:23:49;;;;;;;;;;;20.80;66.20;;;;;;483513;245;1329;-70
2021/07/08 08:25:51;;;;;;;;;;;20.80;65.90;;;;;;483278;245;1126;-70
2021/07/08 08:27:52;;;;;;;;;;;20.80;65.80;;;;;;483309;245;1122;-70
2021/07/08 08:29:54;;;;;;;;;;;20.80;65.70;;;;;;483306;245;1265;-70
2021/07/08 08:31:55;;;;;;;;;;;20.80;65.60;;;;;;483052;245;2136;-70
2021/07/08 08:33:56;;;;;;;;;;;20.80;65.50;;;;;;482994;245;1279;-70
2021/07/08 08:35:57;;;;;;;;;;;20.80;65.40;;;;;;482957;245;1144;-70
2021/07/08 08:37:59;;;;;;;;;;;20.80;65.40;;;;;;483180;245;1091;-71
2021/07/08 08:40:00;;;;;;;;;;;20.80;65.40;;;;;;483176;245;1095;-70
2021/07/08 08:42:01;;;;;;;;;;;20.80;65.40;;;;;;483254;245;1130;-70
2021/07/08 08:44:03;;;;;;;;;;;20.70;65.40;;;;;;483309;245;1077;-70
2021/07/08 08:46:04;;;;;;;;;;;20.80;65.20;;;;;;483221;245;1198;-70
2021/07/08 08:48:05;;;;;;;;;;;20.70;65.30;;;;;;483191;245;1157;-70
2021/07/08 08:50:07;;;;;;;;;;;20.70;65.20;;;;;;483204;245;1097;-70
2021/07/08 08:52:08;;;;;;;;;;;20.70;65.10;;;;;;483133;245;2179;-70
2021/07/08 08:54:09;;;;;;;;;;;20.70;65.10;;;;;;483079;245;1102;-70
2021/07/08 08:56:11;;;;;;;;;;;20.70;65.10;;;;;;483014;245;1238;-70
2021/07/08 08:58:12;;;;;;;;;;;20.80;65.00;;;;;;483143;245;1063;-70
2021/07/08 09:00:13;;;;;;;;;;;20.70;64.90;;;;;;483174;245;1069;-70
2021/07/08 09:02:15;;;;;;;;;;;20.70;64.90;;;;;;483278;245;1196;-70
2021/07/08 09:04:16;;;;;;;;;;;20.70;64.90;;;;;;483251;245;1205;-70
2021/07/08 09:06:17;;;;;;;;;;;20.70;64.80;;;;;;483201;245;1215;-70
2021/07/08 09:08:19;;;;;;;;;;;20.70;64.80;;;;;;483218;245;1096;-70
2021/07/08 09:10:21;;;;;;;;;;;20.70;64.90;;;;;;483273;245;1068;-70
2021/07/08 09:12:23;;;;;;;;;;;20.70;64.90;;;;;;483174;245;2191;-70
2021/07/08 09:14:24;;;;;;;;;;;20.70;64.80;;;;;;483236;241;1992;-70
2021/07/08 09:16:25;;;;;;;;;;;20.70;64.80;;;;;;483117;242;1188;-70
2021/07/08 09:18:27;;;;;;;;;;;20.70;64.70;;;;;;483251;245;1160;-70
2021/07/08 09:20:28;;;;;;;;;;;20.70;64.70;;;;;;483247;245;1103;-70
2021/07/08 09:22:29;;;;;;;;;;;20.70;64.70;;;;;;483296;245;1375;-70
2021/07/08 09:24:34;;;;;;;;;;;20.70;64.60;;;;;;483286;245;1066;-70
2021/07/08 09:26:33;;;;;;;;;;;20.80;64.60;;;;;;483313;241;1261;-70
2021/07/08 09:28:34;;;;;;;;;;;20.80;64.60;;;;;;483205;245;1302;-70
2021/07/08 09:30:35;;;;;;;;;;;20.70;64.60;;;;;;483201;245;1070;-70
2021/07/08 09:32:37;;;;;;;;;;;20.80;64.50;;;;;;483248;245;2176;-70
2021/07/08 09:34:39;;;;;;;;;;;20.70;64.50;;;;;;483226;245;1143;-70
2021/07/08 09:36:39;;;;;;;;;;;20.70;64.60;;;;;;483102;241;1333;-70
2021/07/08 09:38:41;;;;;;;;;;;20.70;64.60;;;;;;483127;245;1133;-70
2021/07/08 09:40:42;;;;;;;;;;;20.70;64.60;;;;;;482992;245;1110;-70
2021/07/08 09:42:45;;;;;;;;;;;20.70;64.40;;;;;;482976;245;1227;-70
2021/07/08 09:44:46;;;;;;;;;;;20.80;64.40;;;;;;483033;245;1158;-70
2021/07/08 09:46:48;;;;;;;;;;;20.70;64.50;;;;;;482918;245;1135;-70
2021/07/08 09:48:49;;;;;;;;;;;20.60;65.00;;;;;;483211;245;1430;-70
2021/07/08 09:50:50;;;;;;;;;;;20.50;65.40;;;;;;483207;245;1117;-70
2021/07/08 09:52:52;;;;;;;;;;;20.50;65.90;;;;;;483332;245;2183;-70
2021/07/08 09:57:12;;;;;;;;;;;20.50;66.30;;;;;;483149;245;1173;-70
2021/07/08 09:59:13;;;;;;;;;;;20.40;66.50;;;;;;483214;245;1085;-70
2021/07/08 10:01:14;;;;;;;;;;;20.40;66.70;;;;;;483243;245;1099;-70
2021/07/08 10:03:16;;;;;;;;;;;20.40;66.90;;;;;;483128;245;1052;-70
2021/07/08 10:05:17;;;;;;;;;;;20.30;67.00;;;;;;483242;245;1187;-70
2021/07/08 10:07:19;;;;;;;;;;;20.40;67.10;;;;;;483291;245;1286;-70
2021/07/08 10:09:20;;;;;;;;;;;20.40;67.10;;;;;;483301;245;1099;-70
2021/07/08 10:11:22;;;;;;;;;;;20.50;67.00;;;;;;483218;245;1231;-70
2021/07/08 10:13:23;;;;;;;;;;;20.60;66.60;;;;;;483236;241;2199;-70
2021/07/08 10:15:24;;;;;;;;;;;20.60;66.30;;;;;;483180;245;1077;-70
2021/07/08 10:17:25;;;;;;;;;;;20.70;66.00;;;;;;483275;245;1225;-70
2021/07/08 10:19:27;;;;;;;;;;;20.70;65.90;;;;;;483306;245;1204;-70
2021/07/08 10:21:30;;;;;;;;;;;20.80;65.80;;;;;;483291;245;1142;-70
2021/07/08 10:23:32;;;;;;;;;;;20.80;65.60;;;;;;483984;245;2516;-70
2021/07/08 10:25:32;;;;;;;;;;;20.90;65.50;;;;;;483634;241;1231;-70
2021/07/08 10:27:33;;;;;;;;;;;20.90;65.40;;;;;;483296;245;1147;-70
2021/07/08 10:29:34;;;;;;;;;;;20.90;65.20;;;;;;483369;242;1184;-70
2021/07/08 10:31:36;;;;;;;;;;;20.90;65.20;;;;;;483281;245;1229;-70
2021/07/08 10:33:37;;;;;;;;;;;20.90;65.20;;;;;;483273;245;2199;-70
2021/07/08 10:35:38;;;;;;;;;;;21.00;65.10;;;;;;483190;245;1204;-70
2021/07/08 10:37:40;;;;;;;;;;;21.00;65.00;;;;;;483032;245;1101;-70
2021/07/08 10:39:42;;;;;;;;;;;21.00;65.00;;;;;;483039;245;1149;-70
2021/07/08 10:41:43;;;;;;;;;;;21.00;65.00;;;;;;483159;245;1280;-70
2021/07/08 10:43:44;;;;;;;;;;;20.90;65.20;;;;;;483775;245;842;-70
2021/07/08 10:45:47;;;;;;;;;;;20.90;65.50;;;;;;483360;245;1484;-70
2021/07/08 10:47:47;;;;;;;;;;;20.80;65.70;;;;;;483563;241;1266;-70
2021/07/08 10:49:49;;;;;;;;;;;20.80;66.10;;;;;;483416;245;1077;-70
2021/07/08 10:51:50;;;;;;;;;;;20.70;66.30;;;;;;483196;245;1579;-70
2021/07/08 10:53:51;;;;;;;;;;;20.70;66.50;;;;;;483608;245;2176;-70
2021/07/08 10:55:53;;;;;;;;;;;20.70;66.60;;;;;;483736;245;1315;-70
2021/07/08 10:57:54;;;;;;;;;;;20.70;66.80;;;;;;483773;241;2374;-70
2021/07/08 10:59:55;;;;;;;;;;;20.70;66.80;;;;;;483328;245;834;-70
2021/07/08 11:01:57;;;;;;;;;;;20.70;67.00;;;;;;483800;245;1404;-70
2021/07/08 11:03:58;;;;;;;;;;;20.60;67.10;;;;;;483398;245;782;-70
2021/07/08 11:05:59;;;;;;;;;;;20.60;67.20;;;;;;483393;245;1085;-70
2021/07/08 11:08:01;;;;;;;;;;;20.60;67.40;;;;;;483330;245;1068;-70
2021/07/08 11:10:02;;;;;;;;;;;20.60;67.40;;;;;;483949;245;827;-70
2021/07/08 11:12:03;;;;;;;;;;;20.60;67.40;;;;;;483486;245;1557;-70
2021/07/08 11:14:05;;;;;;;;;;;20.60;67.50;;;;;;483197;245;2184;-70
2021/07/08 11:16:06;;;;;;;;;;;20.70;67.40;;;;;;483307;245;1090;-70
2021/07/08 11:18:08;;;;;;;;;;;20.80;67.10;;;;;;483268;245;1262;-70
2021/07/08 11:20:09;;;;;;;;;;;20.90;66.80;;;;;;483155;245;1141;-70
2021/07/08 11:22:13;;;;;;;;;;;20.90;66.60;;;;;;483322;245;1438;-70
2021/07/08 11:24:12;;;;;;;;;;;20.90;66.40;;;;;;483453;241;1388;-70
2021/07/08 11:26:13;;;;;;;;;;;20.90;66.40;;;;;;483314;245;1137;-70
2021/07/08 11:28:14;;;;;;;;;;;20.90;66.40;;;;;;483243;245;1108;-70
2021/07/08 11:30:16;;;;;;;;;;;20.90;66.40;;;;;;483192;245;1274;-70
2021/07/08 11:32:17;;;;;;;;;;;20.90;66.30;;;;;;483259;245;1237;-70
2021/07/08 11:34:18;;;;;;;;;;;20.80;66.20;;;;;;482989;245;2187;-70
2021/07/08 11:36:23;;;;;;;;;;;20.90;66.10;;;;;;483086;245;1218;-70
2021/07/08 11:38:21;;;;;;;;;;;20.90;66.10;;;;;;483546;241;1416;-70
2021/07/08 11:40:22;;;;;;;;;;;20.80;66.00;;;;;;483368;245;1238;-70
2021/07/08 11:42:24;;;;;;;;;;;20.90;66.00;;;;;;483317;245;1474;-70
2021/07/08 11:44:29;;;;;;;;;;;20.90;65.90;;;;;;483371;245;1077;-70
2021/07/08 11:46:26;;;;;;;;;;;20.90;65.70;;;;;;483492;241;1542;-70
2021/07/08 11:48:28;;;;;;;;;;;20.90;65.80;;;;;;483190;245;1085;-70
2021/07/08 11:50:29;;;;;;;;;;;20.90;65.80;;;;;;483166;245;1152;-70
2021/07/08 11:52:31;;;;;;;;;;;20.80;65.70;;;;;;483347;245;2191;-70
2021/07/08 11:54:32;;;;;;;;;;;20.80;65.80;;;;;;483343;241;1237;-70
2021/07/08 11:56:33;;;;;;;;;;;20.90;65.80;;;;;;483309;245;1074;-70
2021/07/08 11:58:34;;;;;;;;;;;20.80;65.60;;;;;;483132;245;1137;-70
2021/07/08 12:00:36;;;;;;;;;;;20.90;65.60;;;;;;483044;245;1086;-70
2021/07/08 12:02:37;;;;;;;;;;;20.90;65.50;;;;;;483330;245;1078;-70
2021/07/08 12:04:38;;;;;;;;;;;20.90;65.50;;;;;;483273;245;1031;-70